sensor_id;sensor_type;location;lat;lon;timestamp;temperature;humidity
31729;DHT22;18309;43.658;1.312;2024-02-26T00:01:23;9.50;99.90
31729;DHT22;18309;43.658;1.312;2024-02-26T00:03:49;9.50;99.90
31729;DHT22;18309;43.658;1.312;2024-02-26T00:06:15;9.50;99.90
31729;DHT22;18309;43.658;1.312;2024-02-26T00:08:41;9.50;99.90
31729;DHT22;18309;43.658;1.312;2024-02-26T00:11:07;9.50;99.90
31729;DHT22;18309;43.658;1.312;2024-02-26T00:13:32;9.50;99.90
31729;DHT22;18309;43.658;1.312;2024-02-26T00:15:58;9.50;99.90
31729;DHT22;18309;43.658;1.312;2024-02-26T00:18:24;9.50;99.90
31729;DHT22;18309;43.658;1.312;2024-02-26T00:20:49;9.50;99.90
31729;DHT22;18309;43.658;1.312;2024-02-26T00:23:15;9.50;99.90
31729;DHT22;18309;43.658;1.312;2024-02-26T00:25:41;9.50;99.90
31729;DHT22;18309;43.658;1.312;2024-02-26T00:28:09;9.60;99.90
31729;DHT22;18309;43.658;1.312;2024-02-26T00:30:35;9.50;99.90
31729;DHT22;18309;43.658;1.312;2024-02-26T00:33:01;9.50;99.90
31729;DHT22;18309;43.658;1.312;2024-02-26T00:35:26;9.50;99.90
31729;DHT22;18309;43.658;1.312;2024-02-26T00:37:52;9.50;99.90
31729;DHT22;18309;43.658;1.312;2024-02-26T00:40:18;9.50;99.90
31729;DHT22;18309;43.658;1.312;2024-02-26T00:42:44;9.50;99.90
31729;DHT22;18309;43.658;1.312;2024-02-26T00:45:14;9.50;99.90
31729;DHT22;18309;43.658;1.312;2024-02-26T00:47:41;9.50;99.90
31729;DHT22;18309;43.658;1.312;2024-02-26T00:50:08;9.50;99.90
31729;DHT22;18309;43.658;1.312;2024-02-26T00:52:34;9.50;99.90
31729;DHT22;18309;43.658;1.312;2024-02-26T00:55:01;9.50;99.90
31729;DHT22;18309;43.658;1.312;2024-02-26T00:57:27;9.50;99.90
31729;DHT22;18309;43.658;1.312;2024-02-26T00:59:52;9.50;99.90
31729;DHT22;18309;43.658;1.312;2024-02-26T01:02:18;9.50;99.90
31729;DHT22;18309;43.658;1.312;2024-02-26T01:04:43;9.50;99.90
31729;DHT22;18309;43.658;1.312;2024-02-26T01:07:09;9.40;99.90
31729;DHT22;18309;43.658;1.312;2024-02-26T01:09:35;9.50;99.90
31729;DHT22;18309;43.658;1.312;2024-02-26T01:12:01;9.50;99.90
31729;DHT22;18309;43.658;1.312;2024-02-26T01:14:28;9.40;99.90
31729;DHT22;18309;43.658;1.312;2024-02-26T01:16:53;9.40;99.90
31729;DHT22;18309;43.658;1.312;2024-02-26T01:19:19;9.40;99.90
31729;DHT22;18309;43.658;1.312;2024-02-26T01:21:45;9.40;99.90
31729;DHT22;18309;43.658;1.312;2024-02-26T01:24:11;9.40;99.90
31729;DHT22;18309;43.658;1.312;2024-02-26T01:26:36;9.40;99.90
31729;DHT22;18309;43.658;1.312;2024-02-26T01:29:02;9.30;99.90
31729;DHT22;18309;43.658;1.312;2024-02-26T01:31:27;9.40;99.90
31729;DHT22;18309;43.658;1.312;2024-02-26T01:33:53;9.30;99.90
31729;DHT22;18309;43.658;1.312;2024-02-26T01:36:19;9.30;99.90
31729;DHT22;18309;43.658;1.312;2024-02-26T01:38:45;9.30;99.90
31729;DHT22;18309;43.658;1.312;2024-02-26T01:41:11;9.30;99.90
31729;DHT22;18309;43.658;1.312;2024-02-26T01:43:38;9.30;99.90
31729;DHT22;18309;43.658;1.312;2024-02-26T01:46:03;9.20;99.90
31729;DHT22;18309;43.658;1.312;2024-02-26T01:48:29;9.20;99.90
31729;DHT22;18309;43.658;1.312;2024-02-26T01:50:55;9.20;99.90
31729;DHT22;18309;43.658;1.312;2024-02-26T01:53:21;9.20;99.90
31729;DHT22;18309;43.658;1.312;2024-02-26T01:55:47;9.10;99.90
31729;DHT22;18309;43.658;1.312;2024-02-26T01:58:14;9.20;99.90
31729;DHT22;18309;43.658;1.312;2024-02-26T02:00:39;9.10;99.90
31729;DHT22;18309;43.658;1.312;2024-02-26T02:03:05;9.10;99.90
31729;DHT22;18309;43.658;1.312;2024-02-26T02:05:31;9.10;99.90
31729;DHT22;18309;43.658;1.312;2024-02-26T02:07:59;9.10;99.90
31729;DHT22;18309;43.658;1.312;2024-02-26T02:10:26;9.10;99.90
31729;DHT22;18309;43.658;1.312;2024-02-26T02:12:53;9.00;99.90
31729;DHT22;18309;43.658;1.312;2024-02-26T02:15:20;9.00;99.90
31729;DHT22;18309;43.658;1.312;2024-02-26T02:17:46;9.00;99.90
31729;DHT22;18309;43.658;1.312;2024-02-26T02:20:18;9.00;99.90
31729;DHT22;18309;43.658;1.312;2024-02-26T02:22:47;9.00;99.90
31729;DHT22;18309;43.658;1.312;2024-02-26T02:25:13;9.00;99.90
31729;DHT22;18309;43.658;1.312;2024-02-26T02:27:39;9.00;99.90
31729;DHT22;18309;43.658;1.312;2024-02-26T02:30:08;9.00;99.90
31729;DHT22;18309;43.658;1.312;2024-02-26T02:32:36;9.00;99.90
31729;DHT22;18309;43.658;1.312;2024-02-26T02:35:03;9.00;99.90
31729;DHT22;18309;43.658;1.312;2024-02-26T02:37:29;9.00;99.90
31729;DHT22;18309;43.658;1.312;2024-02-26T02:39:54;8.90;99.90
31729;DHT22;18309;43.658;1.312;2024-02-26T02:42:20;8.90;99.90
31729;DHT22;18309;43.658;1.312;2024-02-26T02:44:46;8.90;99.90
31729;DHT22;18309;43.658;1.312;2024-02-26T02:47:11;9.00;99.90
31729;DHT22;18309;43.658;1.312;2024-02-26T02:49:37;9.00;99.90
31729;DHT22;18309;43.658;1.312;2024-02-26T02:52:03;8.90;99.90
31729;DHT22;18309;43.658;1.312;2024-02-26T02:54:29;8.90;99.90
31729;DHT22;18309;43.658;1.312;2024-02-26T02:56:54;8.90;99.90
31729;DHT22;18309;43.658;1.312;2024-02-26T02:59:20;8.90;99.90
31729;DHT22;18309;43.658;1.312;2024-02-26T03:01:46;8.90;99.90
31729;DHT22;18309;43.658;1.312;2024-02-26T03:04:12;8.90;99.90
31729;DHT22;18309;43.658;1.312;2024-02-26T03:06:37;8.90;99.90
31729;DHT22;18309;43.658;1.312;2024-02-26T03:09:03;8.90;99.90
31729;DHT22;18309;43.658;1.312;2024-02-26T03:11:29;9.00;99.90
31729;DHT22;18309;43.658;1.312;2024-02-26T03:13:55;8.90;99.90
31729;DHT22;18309;43.658;1.312;2024-02-26T03:16:20;9.00;99.90
31729;DHT22;18309;43.658;1.312;2024-02-26T03:18:46;9.00;99.90
31729;DHT22;18309;43.658;1.312;2024-02-26T03:21:12;8.90;99.90
31729;DHT22;18309;43.658;1.312;2024-02-26T03:23:37;9.00;99.90
31729;DHT22;18309;43.658;1.312;2024-02-26T03:26:06;9.00;99.90
31729;DHT22;18309;43.658;1.312;2024-02-26T03:28:32;9.00;99.90
31729;DHT22;18309;43.658;1.312;2024-02-26T03:30:59;9.00;99.90
31729;DHT22;18309;43.658;1.312;2024-02-26T03:33:25;9.10;99.90
31729;DHT22;18309;43.658;1.312;2024-02-26T03:35:50;9.10;99.90
31729;DHT22;18309;43.658;1.312;2024-02-26T03:38:16;9.20;99.90
31729;DHT22;18309;43.658;1.312;2024-02-26T03:40:42;9.20;99.90
31729;DHT22;18309;43.658;1.312;2024-02-26T03:43:08;9.20;99.90
31729;DHT22;18309;43.658;1.312;2024-02-26T03:45:33;9.20;99.90
31729;DHT22;18309;43.658;1.312;2024-02-26T03:47:59;9.30;99.90
31729;DHT22;18309;43.658;1.312;2024-02-26T03:50:25;9.30;99.90
31729;DHT22;18309;43.658;1.312;2024-02-26T03:52:51;9.30;99.90
31729;DHT22;18309;43.658;1.312;2024-02-26T03:55:16;9.30;99.90
31729;DHT22;18309;43.658;1.312;2024-02-26T03:57:46;9.30;99.90
31729;DHT22;18309;43.658;1.312;2024-02-26T04:00:12;9.30;99.90
31729;DHT22;18309;43.658;1.312;2024-02-26T04:02:38;9.40;99.90
31729;DHT22;18309;43.658;1.312;2024-02-26T04:05:04;9.40;99.90
31729;DHT22;18309;43.658;1.312;2024-02-26T04:07:30;9.40;99.90
31729;DHT22;18309;43.658;1.312;2024-02-26T04:09:56;9.40;99.90
31729;DHT22;18309;43.658;1.312;2024-02-26T04:12:21;9.50;99.90
31729;DHT22;18309;43.658;1.312;2024-02-26T04:14:47;9.50;99.90
31729;DHT22;18309;43.658;1.312;2024-02-26T04:17:13;9.50;99.90
31729;DHT22;18309;43.658;1.312;2024-02-26T04:19:38;9.60;99.90
31729;DHT22;18309;43.658;1.312;2024-02-26T04:22:04;9.60;99.90
31729;DHT22;18309;43.658;1.312;2024-02-26T04:24:30;9.60;99.90
31729;DHT22;18309;43.658;1.312;2024-02-26T04:26:56;9.70;99.90
31729;DHT22;18309;43.658;1.312;2024-02-26T04:29:21;9.60;99.90
31729;DHT22;18309;43.658;1.312;2024-02-26T04:31:47;9.70;99.90
31729;DHT22;18309;43.658;1.312;2024-02-26T04:34:13;9.70;99.90
31729;DHT22;18309;43.658;1.312;2024-02-26T04:36:39;9.70;99.90
31729;DHT22;18309;43.658;1.312;2024-02-26T04:39:04;9.70;99.90
31729;DHT22;18309;43.658;1.312;2024-02-26T04:41:30;9.70;99.90
31729;DHT22;18309;43.658;1.312;2024-02-26T04:43:56;9.70;99.90
31729;DHT22;18309;43.658;1.312;2024-02-26T04:46:21;9.70;99.90
31729;DHT22;18309;43.658;1.312;2024-02-26T04:48:47;9.70;99.90
31729;DHT22;18309;43.658;1.312;2024-02-26T04:51:13;9.70;99.90
31729;DHT22;18309;43.658;1.312;2024-02-26T04:53:39;9.80;99.90
31729;DHT22;18309;43.658;1.312;2024-02-26T04:56:05;9.80;99.90
31729;DHT22;18309;43.658;1.312;2024-02-26T04:58:30;9.80;99.90
31729;DHT22;18309;43.658;1.312;2024-02-26T05:00:56;9.80;99.90
31729;DHT22;18309;43.658;1.312;2024-02-26T05:03:22;9.80;99.90
31729;DHT22;18309;43.658;1.312;2024-02-26T05:05:47;9.80;99.90
31729;DHT22;18309;43.658;1.312;2024-02-26T05:08:13;9.80;99.90
31729;DHT22;18309;43.658;1.312;2024-02-26T05:10:39;9.80;99.90
31729;DHT22;18309;43.658;1.312;2024-02-26T05:13:09;9.80;99.90
31729;DHT22;18309;43.658;1.312;2024-02-26T05:15:35;9.80;99.90
31729;DHT22;18309;43.658;1.312;2024-02-26T05:18:02;9.80;99.90
31729;DHT22;18309;43.658;1.312;2024-02-26T05:20:28;9.80;99.90
31729;DHT22;18309;43.658;1.312;2024-02-26T05:22:54;9.80;99.90
31729;DHT22;18309;43.658;1.312;2024-02-26T05:25:19;9.80;99.90
31729;DHT22;18309;43.658;1.312;2024-02-26T05:27:45;9.80;99.90
31729;DHT22;18309;43.658;1.312;2024-02-26T05:30:11;9.80;99.90
31729;DHT22;18309;43.658;1.312;2024-02-26T05:32:37;9.80;99.90
31729;DHT22;18309;43.658;1.312;2024-02-26T05:35:03;9.80;99.90
31729;DHT22;18309;43.658;1.312;2024-02-26T05:37:30;9.80;99.90
31729;DHT22;18309;43.658;1.312;2024-02-26T05:39:55;9.80;99.90
31729;DHT22;18309;43.658;1.312;2024-02-26T05:42:21;9.80;99.90
31729;DHT22;18309;43.658;1.312;2024-02-26T05:44:47;9.70;99.90
31729;DHT22;18309;43.658;1.312;2024-02-26T05:47:13;9.80;99.90
31729;DHT22;18309;43.658;1.312;2024-02-26T05:49:39;9.80;99.90
31729;DHT22;18309;43.658;1.312;2024-02-26T05:52:05;9.70;99.90
31729;DHT22;18309;43.658;1.312;2024-02-26T05:54:31;9.80;99.90
31729;DHT22;18309;43.658;1.312;2024-02-26T05:56:57;9.80;99.90
31729;DHT22;18309;43.658;1.312;2024-02-26T05:59:23;9.70;99.90
31729;DHT22;18309;43.658;1.312;2024-02-26T06:01:49;9.70;99.90
31729;DHT22;18309;43.658;1.312;2024-02-26T06:04:15;9.80;99.90
31729;DHT22;18309;43.658;1.312;2024-02-26T06:06:42;9.70;99.90
31729;DHT22;18309;43.658;1.312;2024-02-26T06:09:08;9.80;99.90
31729;DHT22;18309;43.658;1.312;2024-02-26T06:11:33;9.70;99.90
31729;DHT22;18309;43.658;1.312;2024-02-26T06:13:59;9.70;99.90
31729;DHT22;18309;43.658;1.312;2024-02-26T06:16:25;9.70;99.90
31729;DHT22;18309;43.658;1.312;2024-02-26T06:18:50;9.70;99.90
31729;DHT22;18309;43.658;1.312;2024-02-26T06:21:16;9.70;99.90
31729;DHT22;18309;43.658;1.312;2024-02-26T06:23:42;9.70;99.90
31729;DHT22;18309;43.658;1.312;2024-02-26T06:26:08;9.70;99.90
31729;DHT22;18309;43.658;1.312;2024-02-26T06:28:33;9.70;99.90
31729;DHT22;18309;43.658;1.312;2024-02-26T06:31:01;9.70;99.90
31729;DHT22;18309;43.658;1.312;2024-02-26T06:33:27;9.70;99.90
31729;DHT22;18309;43.658;1.312;2024-02-26T06:35:52;9.70;99.90
31729;DHT22;18309;43.658;1.312;2024-02-26T06:38:18;9.70;99.90
31729;DHT22;18309;43.658;1.312;2024-02-26T06:40:45;9.70;99.90
31729;DHT22;18309;43.658;1.312;2024-02-26T06:43:11;9.60;99.90
31729;DHT22;18309;43.658;1.312;2024-02-26T06:45:37;9.50;99.90
31729;DHT22;18309;43.658;1.312;2024-02-26T06:48:02;9.50;99.90
31729;DHT22;18309;43.658;1.312;2024-02-26T06:50:28;9.50;99.90
31729;DHT22;18309;43.658;1.312;2024-02-26T06:52:54;9.50;99.90
31729;DHT22;18309;43.658;1.312;2024-02-26T06:55:19;9.40;99.90
31729;DHT22;18309;43.658;1.312;2024-02-26T06:57:45;9.40;99.90
31729;DHT22;18309;43.658;1.312;2024-02-26T07:00:11;9.40;99.90
31729;DHT22;18309;43.658;1.312;2024-02-26T07:02:42;9.30;99.90
31729;DHT22;18309;43.658;1.312;2024-02-26T07:05:08;9.30;99.90
31729;DHT22;18309;43.658;1.312;2024-02-26T07:07:34;9.30;99.90
31729;DHT22;18309;43.658;1.312;2024-02-26T07:10:00;9.30;99.90
31729;DHT22;18309;43.658;1.312;2024-02-26T07:12:29;9.20;99.90
31729;DHT22;18309;43.658;1.312;2024-02-26T07:14:55;9.20;99.90
31729;DHT22;18309;43.658;1.312;2024-02-26T07:17:20;9.20;99.90
31729;DHT22;18309;43.658;1.312;2024-02-26T07:19:46;9.20;99.90
31729;DHT22;18309;43.658;1.312;2024-02-26T07:22:12;9.30;99.90
31729;DHT22;18309;43.658;1.312;2024-02-26T07:24:37;9.30;99.90
31729;DHT22;18309;43.658;1.312;2024-02-26T07:27:03;9.30;99.90
31729;DHT22;18309;43.658;1.312;2024-02-26T07:29:29;9.30;99.90
31729;DHT22;18309;43.658;1.312;2024-02-26T07:31:56;9.40;99.90
31729;DHT22;18309;43.658;1.312;2024-02-26T07:34:22;9.50;99.90
31729;DHT22;18309;43.658;1.312;2024-02-26T07:36:53;9.40;99.90
31729;DHT22;18309;43.658;1.312;2024-02-26T07:39:19;9.60;99.90
31729;DHT22;18309;43.658;1.312;2024-02-26T07:41:44;9.60;99.90
31729;DHT22;18309;43.658;1.312;2024-02-26T07:44:12;9.60;99.90
31729;DHT22;18309;43.658;1.312;2024-02-26T07:46:38;9.70;99.90
31729;DHT22;18309;43.658;1.312;2024-02-26T07:49:03;9.90;99.90
31729;DHT22;18309;43.658;1.312;2024-02-26T07:51:29;9.90;99.90
31729;DHT22;18309;43.658;1.312;2024-02-26T07:53:54;9.80;99.90
31729;DHT22;18309;43.658;1.312;2024-02-26T07:56:20;9.80;99.90
31729;DHT22;18309;43.658;1.312;2024-02-26T07:58:46;9.90;99.90
31729;DHT22;18309;43.658;1.312;2024-02-26T08:01:14;9.90;99.90
31729;DHT22;18309;43.658;1.312;2024-02-26T08:03:40;9.90;99.90
31729;DHT22;18309;43.658;1.312;2024-02-26T08:06:07;9.90;99.90
31729;DHT22;18309;43.658;1.312;2024-02-26T08:08:33;9.90;99.90
31729;DHT22;18309;43.658;1.312;2024-02-26T08:10:59;9.90;99.90
31729;DHT22;18309;43.658;1.312;2024-02-26T08:13:25;10.00;99.90
31729;DHT22;18309;43.658;1.312;2024-02-26T08:15:52;10.20;99.90
31729;DHT22;18309;43.658;1.312;2024-02-26T08:18:17;10.30;99.90
31729;DHT22;18309;43.658;1.312;2024-02-26T08:20:43;10.30;99.90
31729;DHT22;18309;43.658;1.312;2024-02-26T08:23:09;10.50;99.90
31729;DHT22;18309;43.658;1.312;2024-02-26T08:25:34;10.60;99.90
31729;DHT22;18309;43.658;1.312;2024-02-26T08:28:00;10.80;99.90
31729;DHT22;18309;43.658;1.312;2024-02-26T08:30:26;10.80;99.90
31729;DHT22;18309;43.658;1.312;2024-02-26T08:32:52;10.70;99.90
31729;DHT22;18309;43.658;1.312;2024-02-26T08:35:18;10.90;99.90
31729;DHT22;18309;43.658;1.312;2024-02-26T08:37:47;11.10;99.90
31729;DHT22;18309;43.658;1.312;2024-02-26T08:40:13;11.30;99.90
31729;DHT22;18309;43.658;1.312;2024-02-26T08:42:39;11.20;99.90
31729;DHT22;18309;43.658;1.312;2024-02-26T08:45:05;11.00;99.90
31729;DHT22;18309;43.658;1.312;2024-02-26T08:47:32;10.90;99.90
31729;DHT22;18309;43.658;1.312;2024-02-26T08:49:58;11.00;99.90
31729;DHT22;18309;43.658;1.312;2024-02-26T08:52:23;10.90;99.90
31729;DHT22;18309;43.658;1.312;2024-02-26T08:54:50;10.90;99.90
31729;DHT22;18309;43.658;1.312;2024-02-26T08:57:16;10.90;99.90
31729;DHT22;18309;43.658;1.312;2024-02-26T08:59:41;10.90;99.90
31729;DHT22;18309;43.658;1.312;2024-02-26T09:02:08;10.90;99.90
31729;DHT22;18309;43.658;1.312;2024-02-26T09:04:35;11.00;99.90
31729;DHT22;18309;43.658;1.312;2024-02-26T09:07:01;11.10;99.90
31729;DHT22;18309;43.658;1.312;2024-02-26T09:09:27;11.20;99.90
31729;DHT22;18309;43.658;1.312;2024-02-26T09:11:53;11.20;99.90
31729;DHT22;18309;43.658;1.312;2024-02-26T09:14:20;11.40;99.90
31729;DHT22;18309;43.658;1.312;2024-02-26T09:16:46;11.60;99.90
31729;DHT22;18309;43.658;1.312;2024-02-26T09:19:14;11.40;99.90
31729;DHT22;18309;43.658;1.312;2024-02-26T09:21:46;11.30;99.90
31729;DHT22;18309;43.658;1.312;2024-02-26T09:24:12;11.00;99.90
31729;DHT22;18309;43.658;1.312;2024-02-26T09:26:38;11.10;99.90
31729;DHT22;18309;43.658;1.312;2024-02-26T09:29:04;11.20;99.90
31729;DHT22;18309;43.658;1.312;2024-02-26T09:31:31;11.30;99.90
31729;DHT22;18309;43.658;1.312;2024-02-26T09:33:56;11.30;99.90
31729;DHT22;18309;43.658;1.312;2024-02-26T09:36:22;11.20;99.90
31729;DHT22;18309;43.658;1.312;2024-02-26T09:38:48;11.40;99.90
31729;DHT22;18309;43.658;1.312;2024-02-26T09:41:17;11.40;99.90
31729;DHT22;18309;43.658;1.312;2024-02-26T09:43:44;11.40;99.90
31729;DHT22;18309;43.658;1.312;2024-02-26T09:46:11;11.50;99.90
31729;DHT22;18309;43.658;1.312;2024-02-26T09:48:37;11.50;99.90
31729;DHT22;18309;43.658;1.312;2024-02-26T09:51:04;11.50;99.90
31729;DHT22;18309;43.658;1.312;2024-02-26T09:53:32;11.40;99.90
31729;DHT22;18309;43.658;1.312;2024-02-26T09:56:01;11.70;99.90
31729;DHT22;18309;43.658;1.312;2024-02-26T09:58:30;11.90;99.90
31729;DHT22;18309;43.658;1.312;2024-02-26T10:00:57;12.00;99.90
31729;DHT22;18309;43.658;1.312;2024-02-26T10:03:30;12.00;99.90
31729;DHT22;18309;43.658;1.312;2024-02-26T10:05:56;12.10;99.90
31729;DHT22;18309;43.658;1.312;2024-02-26T10:08:23;12.20;99.90
31729;DHT22;18309;43.658;1.312;2024-02-26T10:10:50;12.10;99.90
31729;DHT22;18309;43.658;1.312;2024-02-26T10:13:16;12.10;99.90
31729;DHT22;18309;43.658;1.312;2024-02-26T10:15:42;11.90;99.90
31729;DHT22;18309;43.658;1.312;2024-02-26T10:18:07;12.00;99.90
31729;DHT22;18309;43.658;1.312;2024-02-26T10:20:33;12.30;99.90
31729;DHT22;18309;43.658;1.312;2024-02-26T10:23:02;12.60;99.90
31729;DHT22;18309;43.658;1.312;2024-02-26T10:25:28;12.80;99.90
31729;DHT22;18309;43.658;1.312;2024-02-26T10:27:54;13.00;99.90
31729;DHT22;18309;43.658;1.312;2024-02-26T10:30:20;12.80;99.90
31729;DHT22;18309;43.658;1.312;2024-02-26T10:32:48;12.70;99.90
31729;DHT22;18309;43.658;1.312;2024-02-26T10:35:15;12.60;99.90
31729;DHT22;18309;43.658;1.312;2024-02-26T10:37:41;12.30;99.90
31729;DHT22;18309;43.658;1.312;2024-02-26T10:40:11;12.30;99.90
31729;DHT22;18309;43.658;1.312;2024-02-26T10:42:37;12.40;99.90
31729;DHT22;18309;43.658;1.312;2024-02-26T10:45:07;12.40;99.90
31729;DHT22;18309;43.658;1.312;2024-02-26T10:47:34;12.60;99.90
31729;DHT22;18309;43.658;1.312;2024-02-26T10:50:05;12.70;99.90
31729;DHT22;18309;43.658;1.312;2024-02-26T10:52:32;12.70;99.90
31729;DHT22;18309;43.658;1.312;2024-02-26T10:55:01;12.80;99.90
31729;DHT22;18309;43.658;1.312;2024-02-26T10:57:40;12.80;99.90
31729;DHT22;18309;43.658;1.312;2024-02-26T11:00:06;13.10;99.90
31729;DHT22;18309;43.658;1.312;2024-02-26T11:02:36;13.10;99.90
31729;DHT22;18309;43.658;1.312;2024-02-26T11:05:03;13.00;99.90
31729;DHT22;18309;43.658;1.312;2024-02-26T11:07:31;13.20;99.90
31729;DHT22;18309;43.658;1.312;2024-02-26T11:09:59;13.00;99.90
31729;DHT22;18309;43.658;1.312;2024-02-26T11:12:28;13.30;99.90
31729;DHT22;18309;43.658;1.312;2024-02-26T11:14:55;13.70;99.90
31729;DHT22;18309;43.658;1.312;2024-02-26T11:17:27;14.00;99.90
31729;DHT22;18309;43.658;1.312;2024-02-26T11:19:58;13.40;99.90
31729;DHT22;18309;43.658;1.312;2024-02-26T11:22:27;13.50;99.90
31729;DHT22;18309;43.658;1.312;2024-02-26T11:24:53;13.10;99.90
31729;DHT22;18309;43.658;1.312;2024-02-26T11:27:56;13.00;99.90
31729;DHT22;18309;43.658;1.312;2024-02-26T11:30:26;13.10;99.90
31729;DHT22;18309;43.658;1.312;2024-02-26T11:32:55;12.90;99.90
31729;DHT22;18309;43.658;1.312;2024-02-26T11:35:20;13.30;99.90
31729;DHT22;18309;43.658;1.312;2024-02-26T11:37:56;13.60;99.90
31729;DHT22;18309;43.658;1.312;2024-02-26T11:40:26;13.30;99.90
31729;DHT22;18309;43.658;1.312;2024-02-26T11:42:53;13.30;99.90
31729;DHT22;18309;43.658;1.312;2024-02-26T11:48:04;13.90;99.90
31729;DHT22;18309;43.658;1.312;2024-02-26T11:50:40;14.20;99.90
31729;DHT22;18309;43.658;1.312;2024-02-26T11:53:28;14.10;99.90
31729;DHT22;18309;43.658;1.312;2024-02-26T11:58:41;14.70;99.90
31729;DHT22;18309;43.658;1.312;2024-02-26T12:01:37;14.50;99.90
31729;DHT22;18309;43.658;1.312;2024-02-26T12:04:25;14.70;99.90
31729;DHT22;18309;43.658;1.312;2024-02-26T12:06:52;14.90;99.90
31729;DHT22;18309;43.658;1.312;2024-02-26T12:09:37;14.20;99.90
31729;DHT22;18309;43.658;1.312;2024-02-26T12:12:05;13.90;99.90
31729;DHT22;18309;43.658;1.312;2024-02-26T12:14:50;14.30;99.90
31729;DHT22;18309;43.658;1.312;2024-02-26T12:17:23;14.40;99.90
31729;DHT22;18309;43.658;1.312;2024-02-26T12:19:50;14.30;99.90
31729;DHT22;18309;43.658;1.312;2024-02-26T12:22:17;14.30;99.90
31729;DHT22;18309;43.658;1.312;2024-02-26T12:24:46;13.90;99.90
31729;DHT22;18309;43.658;1.312;2024-02-26T12:27:11;14.40;99.90
31729;DHT22;18309;43.658;1.312;2024-02-26T12:29:37;14.30;99.90
31729;DHT22;18309;43.658;1.312;2024-02-26T12:32:05;14.10;99.90
31729;DHT22;18309;43.658;1.312;2024-02-26T12:34:31;14.50;99.90
31729;DHT22;18309;43.658;1.312;2024-02-26T12:36:57;14.80;99.90
31729;DHT22;18309;43.658;1.312;2024-02-26T12:39:23;14.00;99.90
31729;DHT22;18309;43.658;1.312;2024-02-26T12:41:49;18.40;96.80
31729;DHT22;18309;43.658;1.312;2024-02-26T12:44:18;19.60;93.00
31729;DHT22;18309;43.658;1.312;2024-02-26T12:46:44;17.00;95.60
31729;DHT22;18309;43.658;1.312;2024-02-26T12:49:15;17.40;95.30
31729;DHT22;18309;43.658;1.312;2024-02-26T12:51:44;19.40;94.10
31729;DHT22;18309;43.658;1.312;2024-02-26T12:54:11;20.90;90.20
31729;DHT22;18309;43.658;1.312;2024-02-26T12:56:37;17.30;92.70
31729;DHT22;18309;43.658;1.312;2024-02-26T12:59:03;16.30;94.90
31729;DHT22;18309;43.658;1.312;2024-02-26T13:01:30;15.50;96.80
31729;DHT22;18309;43.658;1.312;2024-02-26T13:03:56;16.30;96.80
31729;DHT22;18309;43.658;1.312;2024-02-26T13:06:22;21.10;90.40
31729;DHT22;18309;43.658;1.312;2024-02-26T13:08:48;19.80;89.50
31729;DHT22;18309;43.658;1.312;2024-02-26T13:11:14;20.40;90.60
31729;DHT22;18309;43.658;1.312;2024-02-26T13:13:40;16.70;94.00
31729;DHT22;18309;43.658;1.312;2024-02-26T13:16:09;15.70;96.50
31729;DHT22;18309;43.658;1.312;2024-02-26T13:18:35;18.60;94.70
31729;DHT22;18309;43.658;1.312;2024-02-26T13:21:28;22.70;88.00
31729;DHT22;18309;43.658;1.312;2024-02-26T13:23:53;23.00;85.40
31729;DHT22;18309;43.658;1.312;2024-02-26T13:26:22;21.30;85.70
31729;DHT22;18309;43.658;1.312;2024-02-26T13:29:02;23.40;83.40
31729;DHT22;18309;43.658;1.312;2024-02-26T13:31:29;22.60;82.60
31729;DHT22;18309;43.658;1.312;2024-02-26T13:33:55;21.60;84.10
31729;DHT22;18309;43.658;1.312;2024-02-26T13:36:22;17.90;91.30
31729;DHT22;18309;43.658;1.312;2024-02-26T13:38:55;17.70;93.10
31729;DHT22;18309;43.658;1.312;2024-02-26T13:41:21;21.20;87.90
31729;DHT22;18309;43.658;1.312;2024-02-26T13:43:47;21.50;84.00
31729;DHT22;18309;43.658;1.312;2024-02-26T13:46:13;24.60;80.40
31729;DHT22;18309;43.658;1.312;2024-02-26T13:48:41;24.30;76.90
31729;DHT22;18309;43.658;1.312;2024-02-26T13:51:06;21.70;81.50
31729;DHT22;18309;43.658;1.312;2024-02-26T13:53:32;22.30;81.70
31729;DHT22;18309;43.658;1.312;2024-02-26T13:55:58;20.80;82.50
31729;DHT22;18309;43.658;1.312;2024-02-26T13:58:26;21.90;81.70
31729;DHT22;18309;43.658;1.312;2024-02-26T14:00:55;21.70;80.30
31729;DHT22;18309;43.658;1.312;2024-02-26T14:03:22;20.70;84.80
31729;DHT22;18309;43.658;1.312;2024-02-26T14:05:48;21.50;82.50
31729;DHT22;18309;43.658;1.312;2024-02-26T14:08:14;21.00;80.30
31729;DHT22;18309;43.658;1.312;2024-02-26T14:10:40;22.30;79.20
31729;DHT22;18309;43.658;1.312;2024-02-26T14:13:06;21.30;81.40
31729;DHT22;18309;43.658;1.312;2024-02-26T14:15:32;22.40;79.10
31729;DHT22;18309;43.658;1.312;2024-02-26T14:17:58;22.20;78.50
31729;DHT22;18309;43.658;1.312;2024-02-26T14:20:24;22.10;79.30
31729;DHT22;18309;43.658;1.312;2024-02-26T14:22:51;22.40;78.90
31729;DHT22;18309;43.658;1.312;2024-02-26T14:25:19;21.40;80.40
31729;DHT22;18309;43.658;1.312;2024-02-26T14:27:45;22.60;78.60
31729;DHT22;18309;43.658;1.312;2024-02-26T14:30:12;23.50;78.00
31729;DHT22;18309;43.658;1.312;2024-02-26T14:32:38;23.10;78.00
31729;DHT22;18309;43.658;1.312;2024-02-26T14:35:09;24.20;75.90
31729;DHT22;18309;43.658;1.312;2024-02-26T14:37:36;24.90;76.60
31729;DHT22;18309;43.658;1.312;2024-02-26T14:40:02;24.70;75.70
31729;DHT22;18309;43.658;1.312;2024-02-26T14:42:29;24.10;74.60
31729;DHT22;18309;43.658;1.312;2024-02-26T14:44:55;22.20;77.30
31729;DHT22;18309;43.658;1.312;2024-02-26T14:47:21;22.30;77.20
31729;DHT22;18309;43.658;1.312;2024-02-26T14:49:46;23.00;75.10
31729;DHT22;18309;43.658;1.312;2024-02-26T14:52:14;23.30;75.40
31729;DHT22;18309;43.658;1.312;2024-02-26T14:54:40;23.80;74.30
31729;DHT22;18309;43.658;1.312;2024-02-26T14:57:06;24.30;74.80
31729;DHT22;18309;43.658;1.312;2024-02-26T14:59:32;21.30;78.00
31729;DHT22;18309;43.658;1.312;2024-02-26T15:01:59;20.90;81.70
31729;DHT22;18309;43.658;1.312;2024-02-26T15:04:25;22.70;79.90
31729;DHT22;18309;43.658;1.312;2024-02-26T15:06:51;23.30;78.70
31729;DHT22;18309;43.658;1.312;2024-02-26T15:09:17;23.10;77.60
31729;DHT22;18309;43.658;1.312;2024-02-26T15:11:43;23.00;76.90
31729;DHT22;18309;43.658;1.312;2024-02-26T15:14:10;21.20;81.20
31729;DHT22;18309;43.658;1.312;2024-02-26T15:16:36;21.00;82.70
31729;DHT22;18309;43.658;1.312;2024-02-26T15:19:02;21.60;79.40
31729;DHT22;18309;43.658;1.312;2024-02-26T15:21:32;21.40;80.70
31729;DHT22;18309;43.658;1.312;2024-02-26T15:23:58;21.50;78.00
31729;DHT22;18309;43.658;1.312;2024-02-26T15:26:24;20.70;82.70
31729;DHT22;18309;43.658;1.312;2024-02-26T15:28:51;21.20;82.70
31729;DHT22;18309;43.658;1.312;2024-02-26T15:31:17;23.10;78.20
31729;DHT22;18309;43.658;1.312;2024-02-26T15:33:43;21.20;80.50
31729;DHT22;18309;43.658;1.312;2024-02-26T15:36:09;21.20;82.50
31729;DHT22;18309;43.658;1.312;2024-02-26T15:38:37;20.00;86.70
31729;DHT22;18309;43.658;1.312;2024-02-26T15:41:13;20.80;83.90
31729;DHT22;18309;43.658;1.312;2024-02-26T15:43:39;21.80;80.60